Time;durP1;ratioP1;P1;durP2;ratioP2;P2;SDS_P1;SDS_P2;PMS_P1;PMS_P2;Temp;Humidity;BMP_temperature;BMP_pressure;BME280_temperature;BME280_humidity;BME280_pressure;Samples;Min_cycle;Max_cycle;Signal;HPM_P1;HPM_P2
2021/05/10 04:02:37;;;;;;;2.20;1.20;;;13.20;87.10;;;;;;4877470;29;20474;-78
2021/05/10 04:15:42;;;;;;;2.67;1.27;;;14.20;83.40;;;;;;4911432;23;20511;-81
2021/05/10 04:18:07;;;;;;;5.17;1.70;;;14.20;82.90;;;;;;4903647;29;20418;-81
2021/05/10 04:20:33;;;;;;;3.93;1.90;;;14.00;83.30;;;;;;4897336;29;20689;-81
2021/05/10 04:22:58;;;;;;;5.60;1.33;;;14.00;83.80;;;;;;4902516;29;20283;-81
2021/05/10 04:25:24;;;;;;;2.33;1.03;;;14.20;83.30;;;;;;4903418;29;20200;-81
2021/05/10 04:27:49;;;;;;;4.83;1.27;;;14.60;81.70;;;;;;4901720;29;20256;-81
2021/05/10 04:30:15;;;;;;;3.63;1.30;;;15.00;80.20;;;;;;4902992;29;20330;-81
2021/05/10 04:32:41;;;;;;;2.07;1.07;;;15.30;79.90;;;;;;4901919;29;20216;-81
2021/05/10 04:35:08;;;;;;;3.60;1.40;;;15.60;79.30;;;;;;4903164;29;20437;-81
2021/05/10 04:37:34;;;;;;;3.00;1.57;;;15.80;77.80;;;;;;4918632;29;20561;-81
2021/05/10 04:39:59;;;;;;;6.77;1.30;;;15.90;77.80;;;;;;4903726;29;21079;-81
2021/05/10 04:42:25;;;;;;;6.80;1.63;;;16.00;77.40;;;;;;4903034;29;20274;-81
2021/05/10 04:44:50;;;;;;;2.03;1.80;;;16.00;77.90;;;;;;4904004;29;20185;-81
2021/05/10 04:47:16;;;;;;;2.03;1.23;;;16.40;76.70;;;;;;4901667;29;20173;-82
2021/05/10 04:49:42;;;;;;;4.40;1.30;;;15.80;77.50;;;;;;4897649;29;20240;-84
2021/05/10 04:52:07;;;;;;;1.43;1.27;;;15.70;79.00;;;;;;4897511;29;20188;-84
2021/05/10 04:54:33;;;;;;;1.30;1.20;;;15.40;78.70;;;;;;4897629;29;20185;-83
2021/05/10 04:56:58;;;;;;;8.43;1.67;;;15.70;78.50;;;;;;4898048;29;20228;-84
2021/05/10 04:59:24;;;;;;;4.73;1.37;;;15.50;79.00;;;;;;4897187;29;20273;-84
2021/05/10 05:01:49;;;;;;;1.40;1.23;;;15.00;80.50;;;;;;4898369;29;20264;-83
2021/05/10 05:04:16;;;;;;;1.60;1.30;;;14.70;82.20;;;;;;4897303;29;20181;-84
2021/05/10 05:06:42;;;;;;;2.80;1.47;;;14.90;81.80;;;;;;4892595;29;20292;-85
2021/05/10 05:09:07;;;;;;;3.00;1.23;;;15.40;80.30;;;;;;4878394;29;20454;-83
2021/05/10 05:11:33;;;;;;;5.60;1.30;;;16.10;78.80;;;;;;4881429;29;20244;-84
2021/05/10 05:13:58;;;;;;;1.30;1.20;;;16.40;77.50;;;;;;4884734;29;20191;-83
2021/05/10 05:16:24;;;;;;;6.73;2.27;;;16.30;77.40;;;;;;4897283;29;20224;-83
2021/05/10 05:18:49;;;;;;;1.63;1.50;;;16.00;78.00;;;;;;4898355;29;20189;-83
2021/05/10 05:21:15;;;;;;;4.97;1.50;;;15.60;79.60;;;;;;4897442;29;20220;-82
2021/05/10 05:23:40;;;;;;;1.93;1.53;;;15.30;80.40;;;;;;4888067;29;20181;-82
2021/05/10 05:26:06;;;;;;;2.43;1.70;;;15.20;81.40;;;;;;4879769;29;20198;-82
2021/05/10 05:28:32;;;;;;;2.37;1.30;;;15.20;81.50;;;;;;4883973;29;20642;-82
2021/05/10 05:30:59;;;;;;;8.17;1.57;;;15.70;80.30;;;;;;4887405;29;20173;-82
2021/05/10 05:33:25;;;;;;;6.70;1.77;;;16.40;78.00;;;;;;4886535;29;20430;-83
2021/05/10 05:35:52;;;;;;;5.60;1.50;;;17.00;76.30;;;;;;4891978;29;20533;-82
2021/05/10 05:38:17;;;;;;;3.40;1.20;;;17.60;75.10;;;;;;4893631;29;20177;-83
2021/05/10 05:40:44;;;;;;;1.30;1.20;;;18.30;73.10;;;;;;4893147;29;20462;-83
2021/05/10 05:43:10;;;;;;;1.57;1.47;;;18.80;72.10;;;;;;4907394;29;20663;-83
2021/05/10 05:45:37;;;;;;;4.60;1.30;;;19.30;71.10;;;;;;4896975;29;20486;-83
2021/05/10 05:48:08;;;;;;;5.33;2.47;;;19.10;71.00;;;;;;4896574;29;20930;-83
2021/05/10 05:50:35;;;;;;;5.60;1.93;;;18.80;72.50;;;;;;4915918;29;20447;-83
2021/05/10 05:53:01;;;;;;;7.97;1.90;;;18.70;72.30;;;;;;4917990;29;20453;-83
2021/05/10 05:55:30;;;;;;;1.80;1.53;;;18.90;72.60;;;;;;4915857;29;20780;-83
2021/05/10 05:57:57;;;;;;;1.93;1.37;;;19.00;72.00;;;;;;4914629;29;20245;-83
2021/05/10 06:00:23;;;;;;;2.13;1.20;;;19.60;69.80;;;;;;4900310;29;20480;-83
2021/05/10 06:02:49;;;;;;;1.83;1.30;;;20.20;69.70;;;;;;4882427;29;20906;-84
2021/05/10 06:05:15;;;;;;;2.10;1.37;;;20.00;69.10;;;;;;4879226;29;20258;-83
2021/05/10 06:07:41;;;;;;;4.10;1.47;;;20.30;68.90;;;;;;4878881;29;20236;-83
2021/05/10 06:10:08;;;;;;;2.70;1.40;;;20.20;68.60;;;;;;4893354;29;20454;-82
2021/05/10 06:12:34;;;;;;;5.20;1.53;;;19.80;69.60;;;;;;4892906;29;20430;-83
2021/05/10 06:14:59;;;;;;;3.50;1.50;;;20.30;69.80;;;;;;4878417;29;20442;-83
2021/05/10 06:17:25;;;;;;;2.33;1.50;;;20.90;68.40;;;;;;4878147;29;20225;-82
2021/05/10 06:19:50;;;;;;;3.23;1.50;;;20.80;68.40;;;;;;4877283;29;20205;-83
2021/05/10 06:22:16;;;;;;;4.63;1.60;;;21.00;67.90;;;;;;4878749;29;20252;-83
2021/05/10 06:24:42;;;;;;;4.23;1.60;;;20.90;67.80;;;;;;4878587;29;20549;-84
2021/05/10 06:27:07;;;;;;;3.47;1.73;;;20.30;70.50;;;;;;4877346;29;20249;-83
2021/05/10 06:29:32;;;;;;;8.20;1.47;;;19.90;70.80;;;;;;4878935;29;20193;-83
2021/05/10 06:31:58;;;;;;;2.03;1.50;;;19.40;71.90;;;;;;4879404;29;20662;-83
2021/05/10 06:34:26;;;;;;;3.33;1.80;;;19.10;73.20;;;;;;4878369;29;20196;-83
2021/05/10 06:36:52;;;;;;;3.13;1.40;;;18.70;73.30;;;;;;4879250;29;20216;-83
2021/05/10 06:39:17;;;;;;;3.33;1.10;;;18.60;74.90;;;;;;4881689;29;20557;-82
2021/05/10 06:41:43;;;;;;;4.37;1.80;;;18.40;75.20;;;;;;4882727;29;20714;-83
2021/05/10 06:44:08;;;;;;;5.20;1.40;;;18.60;75.00;;;;;;4882727;29;20245;-83
2021/05/10 06:46:34;;;;;;;3.00;1.47;;;18.90;74.20;;;;;;4882374;29;20224;-83
2021/05/10 06:48:59;;;;;;;3.07;1.23;;;19.30;73.60;;;;;;4883247;29;20184;-84
2021/05/10 06:51:25;;;;;;;2.40;1.37;;;19.70;71.80;;;;;;4881191;29;20249;-83
2021/05/10 06:53:50;;;;;;;8.33;1.40;;;19.80;71.90;;;;;;4882024;29;20679;-83
2021/05/10 06:56:15;;;;;;;4.87;1.80;;;20.10;71.80;;;;;;4880250;29;20197;-83
2021/05/10 06:58:41;;;;;;;2.30;1.50;;;19.90;71.30;;;;;;4882256;29;20185;-83
2021/05/10 07:01:07;;;;;;;7.07;1.50;;;19.70;71.80;;;;;;4896614;29;20186;-83
2021/05/10 07:03:32;;;;;;;2.47;1.63;;;19.90;72.00;;;;;;4881980;29;20174;-83
2021/05/10 07:05:58;;;;;;;4.33;1.30;;;20.40;71.30;;;;;;4880414;29;20198;-83
2021/05/10 07:08:23;;;;;;;2.80;1.50;;;21.20;69.30;;;;;;4880935;29;20174;-83
2021/05/10 07:10:51;;;;;;;2.53;1.33;;;22.40;67.30;;;;;;4880164;29;20663;-83
2021/05/10 07:13:17;;;;;;;5.57;1.60;;;23.00;64.30;;;;;;4881362;29;20192;-83
2021/05/10 07:15:43;;;;;;;1.83;1.40;;;23.60;63.00;;;;;;4896040;29;20979;-83
2021/05/10 07:18:13;;;;;;;5.20;1.40;;;23.90;63.00;;;;;;4882455;29;20418;-83
2021/05/10 07:20:40;;;;;;;5.47;1.87;;;23.80;62.60;;;;;;4902088;29;20228;-83
2021/05/10 07:23:06;;;;;;;11.83;1.13;;;24.00;62.70;;;;;;4916484;29;20485;-83
2021/05/10 07:25:34;;;;;;;6.20;1.40;;;23.60;63.70;;;;;;4882007;29;20444;-83
2021/05/10 07:28:00;;;;;;;3.53;1.87;;;23.90;63.30;;;;;;4894902;29;21176;-83
2021/05/10 07:30:26;;;;;;;7.10;1.60;;;24.40;61.40;;;;;;4880838;29;20422;-83
2021/05/10 07:32:51;;;;;;;2.07;1.27;;;24.10;63.20;;;;;;4880821;29;20184;-83
2021/05/10 07:35:17;;;;;;;2.50;1.20;;;24.40;62.90;;;;;;4880820;29;20456;-83
2021/05/10 07:37:43;;;;;;;9.70;2.20;;;24.20;63.00;;;;;;4879140;29;20185;-83
2021/05/10 07:40:09;;;;;;;3.47;1.17;;;25.60;61.10;;;;;;4880589;29;20521;-84
2021/05/10 07:42:35;;;;;;;4.70;1.50;;;25.50;59.90;;;;;;4895068;29;20703;-84
2021/05/10 07:45:01;;;;;;;2.87;1.43;;;26.30;59.10;;;;;;4879499;29;20448;-83
2021/05/10 07:47:29;;;;;;;2.97;1.53;;;26.10;60.00;;;;;;4878953;29;20665;-83
2021/05/10 07:49:56;;;;;;;11.60;2.03;;;25.50;60.20;;;;;;4879936;29;20177;-84
2021/05/10 07:52:21;;;;;;;2.83;1.40;;;26.00;60.90;;;;;;4879932;29;20783;-83
2021/05/10 07:54:47;;;;;;;6.20;2.07;;;26.40;60.30;;;;;;4880480;29;20421;-83
2021/05/10 07:57:12;;;;;;;6.60;1.93;;;25.70;61.00;;;;;;4880050;29;20204;-84
2021/05/10 07:59:38;;;;;;;8.40;1.40;;;26.50;59.70;;;;;;4880423;29;20216;-84
2021/05/10 08:02:03;;;;;;;2.40;1.37;;;27.10;60.20;;;;;;4880419;29;20180;-83
2021/05/10 08:04:29;;;;;;;4.00;1.60;;;27.50;60.40;;;;;;4879167;29;20220;-83
2021/05/10 08:06:54;;;;;;;5.43;1.70;;;28.00;57.90;;;;;;4878621;29;20306;-83
2021/05/10 08:09:23;;;;;;;2.20;1.20;;;27.10;59.10;;;;;;4880312;29;20293;-83
2021/05/10 08:11:49;;;;;;;6.40;1.37;;;26.80;60.80;;;;;;4880211;29;20229;-83
2021/05/10 08:14:16;;;;;;;2.73;1.40;;;27.30;60.40;;;;;;4880314;29;20422;-84
2021/05/10 08:16:41;;;;;;;1.70;1.10;;;27.50;60.80;;;;;;4879455;29;20822;-83
2021/05/10 08:19:07;;;;;;;3.73;1.30;;;27.50;59.90;;;;;;4879768;29;20557;-83
2021/05/10 08:21:32;;;;;;;4.00;1.70;;;28.30;58.90;;;;;;4880150;29;20177;-83
2021/05/10 08:23:58;;;;;;;2.70;1.40;;;29.00;56.90;;;;;;4880019;29;20181;-83
2021/05/10 08:26:23;;;;;;;5.77;1.50;;;29.30;57.00;;;;;;4878208;29;20291;-84
2021/05/10 08:28:49;;;;;;;13.20;1.40;;;29.00;57.00;;;;;;4879843;29;20177;-84
2021/05/10 08:31:14;;;;;;;8.10;1.87;;;29.00;58.10;;;;;;4878580;29;20317;-84
2021/05/10 08:33:40;;;;;;;18.70;2.07;;;28.90;57.40;;;;;;4878589;29;20192;-84
2021/05/10 08:36:05;;;;;;;9.03;1.70;;;28.40;56.80;;;;;;4879602;29;20753;-83
2021/05/10 08:38:31;;;;;;;8.10;1.53;;;27.50;59.90;;;;;;4879458;29;20572;-83
2021/05/10 08:40:57;;;;;;;6.87;1.23;;;27.90;58.00;;;;;;4879480;29;20603;-83
2021/05/10 08:43:24;;;;;;;2.37;1.30;;;27.40;58.30;;;;;;4879617;29;20288;-84
2021/05/10 08:45:56;;;;;;;5.87;1.60;;;27.40;58.00;;;;;;4879521;29;20437;-83
2021/05/10 08:48:22;;;;;;;3.50;1.40;;;27.00;59.40;;;;;;4893435;29;20425;-83
2021/05/10 08:50:49;;;;;;;2.70;1.20;;;27.20;59.10;;;;;;4893727;29;20426;-83
2021/05/10 08:53:15;;;;;;;2.23;1.10;;;27.40;59.40;;;;;;4879563;29;20418;-83
2021/05/10 08:55:41;;;;;;;3.53;1.47;;;27.20;59.30;;;;;;4878856;29;21033;-83
2021/05/10 08:58:08;;;;;;;3.47;1.57;;;27.60;59.20;;;;;;4879587;29;20224;-84
2021/05/10 09:00:50;;;;;;;2.87;1.27;;;28.10;57.30;;;;;;4878511;29;20548;-83
2021/05/10 09:03:16;;;;;;;4.90;1.43;;;28.20;55.20;;;;;;4877765;29;20455;-83
2021/05/10 09:05:51;;;;;;;2.80;1.70;;;28.80;57.30;;;;;;4879084;29;20438;-83
2021/05/10 09:08:18;;;;;;;2.37;1.30;;;29.10;57.10;;;;;;4878695;29;20180;-83
2021/05/10 09:11:06;;;;;;;3.53;1.30;;;29.10;55.70;;;;;;4893514;29;20516;-83
2021/05/10 09:13:57;;;;;;;2.10;1.30;;;28.20;55.90;;;;;;4893416;29;20425;-83
2021/05/10 09:16:23;;;;;;;2.73;1.30;;;28.60;56.60;;;;;;4868719;29;20469;-84
2021/05/10 09:18:57;;;;;;;5.70;2.13;;;29.30;55.00;;;;;;4879162;29;20429;-83
2021/05/10 09:21:25;;;;;;;4.23;1.30;;;29.80;53.50;;;;;;4888900;29;20233;-83
2021/05/10 09:23:52;;;;;;;3.80;1.20;;;29.80;54.20;;;;;;4879708;29;20414;-83
2021/05/10 09:26:32;;;;;;;2.63;1.70;;;29.50;51.90;;;;;;4878529;29;20440;-84
2021/05/10 09:28:58;;;;;;;3.93;1.00;;;29.80;54.20;;;;;;4878192;29;20414;-84
2021/05/10 09:31:23;;;;;;;7.43;1.40;;;29.70;53.20;;;;;;4882274;29;20417;-83
2021/05/10 09:33:49;;;;;;;3.73;1.20;;;29.00;53.60;;;;;;4877815;29;20184;-83
2021/05/10 09:36:40;;;;;;;2.33;1.27;;;28.60;57.50;;;;;;4877036;29;20220;-83
2021/05/10 09:39:26;;;;;;;7.43;1.47;;;28.20;58.30;;;;;;4893520;29;20682;-84
2021/05/10 09:42:08;;;;;;;7.53;1.47;;;28.20;57.50;;;;;;4878002;29;20939;-83
2021/05/10 09:44:40;;;;;;;2.30;1.70;;;27.70;57.70;;;;;;4878066;29;20410;-83
2021/05/10 09:47:06;;;;;;;3.70;1.40;;;28.40;55.60;;;;;;4892741;29;20950;-84
2021/05/10 09:49:50;;;;;;;1.77;1.00;;;28.30;56.20;;;;;;4878687;29;20422;-83
2021/05/10 09:52:21;;;;;;;2.43;0.93;;;29.10;57.00;;;;;;4878663;29;20188;-83
2021/05/10 09:55:14;;;;;;;4.00;1.40;;;29.40;55.10;;;;;;4878532;29;20457;-83
2021/05/10 09:57:55;;;;;;;9.37;1.33;;;29.80;49.60;;;;;;4872906;29;20832;-83
2021/05/10 10:00:21;;;;;;;1.40;1.00;;;29.60;51.10;;;;;;4878508;29;20448;-84
2021/05/10 10:02:46;;;;;;;1.93;1.57;;;29.30;55.30;;;;;;4892723;29;20421;-83
2021/05/10 10:05:12;;;;;;;11.97;1.20;;;29.50;51.10;;;;;;4877234;29;20456;-84
2021/05/10 10:07:41;;;;;;;6.90;1.20;;;30.00;52.60;;;;;;4878042;29;20185;-84
2021/05/10 10:10:08;;;;;;;3.07;1.30;;;30.90;55.20;;;;;;4878549;29;20185;-83
2021/05/10 10:12:34;;;;;;;4.60;1.80;;;30.60;51.70;;;;;;4892770;29;20449;-83
2021/05/10 10:17:28;;;;;;;2.57;0.87;;;30.30;53.70;;;;;;4912635;23;20295;-78
2021/05/10 10:19:55;;;;;;;2.63;1.23;;;30.70;51.10;;;;;;4881972;29;20870;-79
2021/05/10 10:22:24;;;;;;;5.40;1.00;;;31.30;52.30;;;;;;4882097;29;20182;-79
2021/05/10 10:24:50;;;;;;;1.37;0.90;;;31.50;51.30;;;;;;4881756;29;20406;-79
2021/05/10 10:27:17;;;;;;;2.90;1.20;;;31.60;51.00;;;;;;4864492;29;20438;-78
2021/05/10 10:29:45;;;;;;;2.20;0.97;;;31.40;51.60;;;;;;4863379;29;20471;-78
2021/05/10 10:32:17;;;;;;;1.63;0.80;;;31.80;46.20;;;;;;4863402;29;20474;-79
2021/05/10 10:34:46;;;;;;;3.17;0.80;;;31.50;51.00;;;;;;4863457;29;20410;-80
2021/05/10 10:37:14;;;;;;;3.57;1.23;;;31.10;50.20;;;;;;4863599;29;20434;-79
2021/05/10 10:39:50;;;;;;;3.57;1.20;;;30.60;49.50;;;;;;4864210;29;20477;-79
2021/05/10 10:42:29;;;;;;;9.70;1.10;;;31.00;54.00;;;;;;4861883;29;20410;-78
2021/05/10 10:44:57;;;;;;;6.30;0.97;;;31.20;52.60;;;;;;4863217;29;20887;-78
2021/05/10 10:47:44;;;;;;;4.90;1.20;;;30.30;44.50;;;;;;4862403;29;20442;-79
2021/05/10 10:50:15;;;;;;;3.83;1.10;;;30.50;51.30;;;;;;4863146;29;20407;-79
2021/05/10 10:52:59;;;;;;;10.10;1.10;;;30.80;56.20;;;;;;4863094;29;20434;-79
2021/05/10 10:55:30;;;;;;;1.80;0.90;;;30.70;51.90;;;;;;4862924;29;20430;-79
2021/05/10 10:58:14;;;;;;;2.70;1.30;;;30.80;47.90;;;;;;4862380;29;20402;-78
2021/05/10 11:01:01;;;;;;;3.00;1.00;;;31.10;46.20;;;;;;4861326;29;20465;-79
2021/05/10 11:03:27;;;;;;;2.53;0.90;;;31.30;49.00;;;;;;4861610;29;20857;-79
2021/05/10 11:05:53;;;;;;;1.00;0.90;;;31.80;50.30;;;;;;4862021;29;20513;-79
2021/05/10 11:08:42;;;;;;;2.70;0.90;;;31.30;48.20;;;;;;4863287;29;20927;-79
2021/05/10 11:11:30;;;;;;;14.20;1.23;;;31.50;51.30;;;;;;4865711;29;20252;-80
2021/05/10 11:13:58;;;;;;;1.80;1.07;;;31.70;45.40;;;;;;4851050;29;20494;-78
2021/05/10 11:16:47;;;;;;;6.57;1.23;;;31.10;50.40;;;;;;4862019;29;20454;-79
2021/05/10 11:19:33;;;;;;;3.50;1.20;;;31.00;52.40;;;;;;4862425;29;20491;-79
2021/05/10 11:22:01;;;;;;;4.50;1.10;;;30.70;52.60;;;;;;4862460;29;20421;-79
2021/05/10 11:24:32;;;;;;;5.70;1.30;;;30.80;55.10;;;;;;4862113;29;20421;-79
2021/05/10 11:27:01;;;;;;;2.77;1.70;;;31.10;53.90;;;;;;4861857;29;20434;-78
2021/05/10 11:29:27;;;;;;;8.30;1.13;;;30.80;52.90;;;;;;4862256;29;20423;-78
2021/05/10 11:32:19;;;;;;;3.73;1.23;;;30.90;48.60;;;;;;4862407;29;20418;-78
2021/05/10 11:34:45;;;;;;;2.10;0.97;;;30.80;50.30;;;;;;4862224;29;20234;-79
2021/05/10 11:37:11;;;;;;;2.63;1.00;;;30.90;50.10;;;;;;4861728;29;20434;-79
2021/05/10 11:39:39;;;;;;;2.40;1.20;;;31.10;50.30;;;;;;4862152;29;20495;-78
2021/05/10 11:42:07;;;;;;;4.40;1.10;;;30.90;53.10;;;;;;4862104;29;20748;-78
2021/05/10 11:44:38;;;;;;;6.07;1.10;;;31.20;49.70;;;;;;4861804;29;20766;-78
2021/05/10 11:47:09;;;;;;;5.23;1.80;;;31.70;47.90;;;;;;4872761;29;20469;-79
2021/05/10 11:49:39;;;;;;;5.83;1.30;;;31.80;43.60;;;;;;4880294;29;20425;-79
2021/05/10 11:52:08;;;;;;;3.73;1.20;;;31.80;49.10;;;;;;4880486;29;20937;-79
2021/05/10 11:54:35;;;;;;;3.70;1.50;;;32.00;52.10;;;;;;4880268;29;20916;-79
2021/05/10 11:57:06;;;;;;;4.20;1.30;;;31.30;55.50;;;;;;4879891;29;20465;-78
2021/05/10 12:02:26;;;;;;;2.60;1.20;;;31.20;52.10;;;;;;4880187;29;20440;-78
2021/05/10 12:05:04;;;;;;;1.97;1.03;;;31.30;56.20;;;;;;4880133;29;20432;-78
2021/05/10 12:07:34;;;;;;;8.93;1.80;;;31.60;57.50;;;;;;4879377;29;20409;-78
2021/05/10 12:10:07;;;;;;;3.33;1.20;;;31.30;54.00;;;;;;4880037;29;20824;-78
2021/05/10 12:12:37;;;;;;;4.30;1.07;;;31.30;51.40;;;;;;4880118;29;20398;-78
2021/05/10 12:15:09;;;;;;;3.20;1.20;;;30.80;53.10;;;;;;4879901;29;20426;-78
2021/05/10 12:17:35;;;;;;;2.93;1.20;;;30.20;55.50;;;;;;4879341;29;20427;-78
2021/05/10 12:20:09;;;;;;;2.00;1.20;;;30.30;52.80;;;;;;4879723;29;20460;-78
2021/05/10 12:22:47;;;;;;;3.53;1.20;;;30.10;57.50;;;;;;4879782;29;20425;-78
2021/05/10 12:25:31;;;;;;;6.30;1.70;;;30.30;56.80;;;;;;4879394;29;20414;-78
2021/05/10 12:28:05;;;;;;;4.10;1.00;;;30.30;56.40;;;;;;4860745;29;20411;-78
2021/05/10 12:30:55;;;;;;;2.60;1.00;;;30.40;57.40;;;;;;4861673;29;20462;-78
2021/05/10 12:33:25;;;;;;;2.80;1.00;;;31.00;53.40;;;;;;4879901;29;20453;-78
2021/05/10 12:35:53;;;;;;;4.43;1.37;;;30.70;54.60;;;;;;4879179;29;20845;-78
2021/05/10 12:38:42;;;;;;;4.13;1.20;;;30.50;55.20;;;;;;4878933;29;20442;-78
2021/05/10 12:41:18;;;;;;;3.00;0.93;;;30.70;55.40;;;;;;4879557;29;20461;-78
2021/05/10 12:43:46;;;;;;;4.20;1.43;;;30.60;52.40;;;;;;4879664;29;20413;-78
2021/05/10 12:46:11;;;;;;;2.50;1.07;;;31.10;53.60;;;;;;4878422;29;20464;-78
2021/05/10 12:48:43;;;;;;;1.97;1.00;;;30.90;53.50;;;;;;4884035;29;20414;-78
2021/05/10 12:51:15;;;;;;;5.23;1.40;;;30.60;58.00;;;;;;4881447;29;20179;-78
2021/05/10 12:54:01;;;;;;;3.83;1.10;;;30.70;59.30;;;;;;4879374;29;20421;-77
2021/05/10 12:56:29;;;;;;;12.03;1.47;;;31.00;54.30;;;;;;4877320;29;21126;-79
2021/05/10 12:59:00;;;;;;;3.57;1.00;;;30.50;55.00;;;;;;4879099;29;20429;-77
2021/05/10 13:01:30;;;;;;;4.80;1.20;;;30.50;55.60;;;;;;4879285;29;20398;-77
2021/05/10 13:04:04;;;;;;;6.17;1.23;;;30.60;54.90;;;;;;4878990;29;20417;-76
2021/05/10 13:06:33;;;;;;;3.20;1.00;;;30.60;56.90;;;;;;4878068;29;20476;-76
2021/05/10 13:09:06;;;;;;;5.40;1.50;;;30.70;53.10;;;;;;4879593;29;20910;-77
2021/05/10 13:11:34;;;;;;;3.83;1.30;;;30.80;57.00;;;;;;4879655;29;20429;-80
2021/05/10 13:14:01;;;;;;;2.53;1.13;;;30.50;53.90;;;;;;4882499;29;20512;-79
2021/05/10 13:16:52;;;;;;;2.70;1.17;;;30.80;55.80;;;;;;4880154;29;20465;-77
2021/05/10 13:33:31;;;;;;;4.50;1.23;;;29.80;56.90;;;;;;4874659;29;20432;-79
2021/05/10 13:36:01;;;;;;;4.87;1.07;;;29.80;55.40;;;;;;4880376;29;20441;-78
2021/05/10 13:38:30;;;;;;;1.73;0.90;;;29.30;55.50;;;;;;4878251;29;20424;-77
2021/05/10 13:40:59;;;;;;;2.13;1.20;;;29.00;59.70;;;;;;4878417;29;20473;-77
2021/05/10 13:43:34;;;;;;;7.00;1.50;;;28.60;53.20;;;;;;4879621;29;20409;-78
2021/05/10 13:46:03;;;;;;;4.00;1.43;;;28.00;55.80;;;;;;4878968;29;21053;-77
2021/05/10 13:48:28;;;;;;;2.53;1.50;;;28.20;56.80;;;;;;4878625;29;20421;-77
2021/05/10 13:50:54;;;;;;;3.93;1.70;;;28.20;57.40;;;;;;4879391;29;20797;-78
2021/05/10 13:53:19;;;;;;;3.90;1.40;;;28.30;55.90;;;;;;4879397;29;20173;-78
2021/05/10 13:55:45;;;;;;;4.50;1.60;;;27.80;56.40;;;;;;4879236;29;20291;-77
2021/05/10 13:58:10;;;;;;;5.27;1.30;;;27.80;56.20;;;;;;4879082;29;20576;-77
2021/05/10 14:00:36;;;;;;;2.77;1.40;;;28.50;55.00;;;;;;4878549;29;20248;-77
2021/05/10 14:03:02;;;;;;;2.10;1.30;;;29.10;54.50;;;;;;4879567;29;20177;-78
2021/05/10 14:05:27;;;;;;;4.47;1.40;;;29.20;53.60;;;;;;4878839;29;20201;-78
2021/05/10 14:07:53;;;;;;;9.83;1.60;;;29.20;56.60;;;;;;4878965;29;20241;-77
2021/05/10 14:10:18;;;;;;;7.10;1.83;;;28.80;57.10;;;;;;4879183;29;20202;-77
2021/05/10 14:12:44;;;;;;;7.00;1.80;;;28.80;59.60;;;;;;4879583;29;20190;-78
2021/05/10 14:15:11;;;;;;;4.20;1.70;;;28.90;57.60;;;;;;4878780;29;20240;-78
2021/05/10 14:17:38;;;;;;;4.63;1.90;;;28.40;57.80;;;;;;4876610;29;20246;-78
2021/05/10 14:20:04;;;;;;;6.67;1.53;;;28.70;58.80;;;;;;4878025;29;20461;-78
2021/05/10 14:22:30;;;;;;;4.80;1.60;;;28.50;59.90;;;;;;4879829;29;20409;-77
2021/05/10 14:24:55;;;;;;;4.97;1.60;;;28.60;58.30;;;;;;4878749;29;20436;-77
2021/05/10 14:27:21;;;;;;;5.63;1.60;;;28.60;58.60;;;;;;4880019;29;20230;-77
2021/05/10 14:29:46;;;;;;;3.30;1.80;;;28.30;57.90;;;;;;4880868;29;20193;-77
2021/05/10 14:32:12;;;;;;;7.47;1.90;;;28.10;57.30;;;;;;4879039;29;20241;-77
2021/05/10 14:34:37;;;;;;;6.30;1.50;;;28.30;57.90;;;;;;4880224;29;20245;-77
2021/05/10 14:37:03;;;;;;;4.50;1.70;;;28.50;57.80;;;;;;4880955;29;20681;-77
2021/05/10 14:39:29;;;;;;;4.30;2.00;;;28.30;58.20;;;;;;4880701;29;20209;-77
2021/05/10 14:41:54;;;;;;;2.10;1.27;;;28.00;59.60;;;;;;4880991;29;20639;-77
2021/05/10 14:44:21;;;;;;;5.33;1.83;;;28.20;58.50;;;;;;4880576;29;20200;-77
2021/05/10 14:46:47;;;;;;;8.37;1.40;;;28.00;59.20;;;;;;4878573;29;20197;-77
2021/05/10 14:49:13;;;;;;;8.90;1.83;;;28.20;59.00;;;;;;4880811;29;20422;-76
2021/05/10 14:51:39;;;;;;;5.37;1.80;;;28.10;59.80;;;;;;4880602;29;20177;-76
2021/05/10 14:54:07;;;;;;;2.70;1.50;;;28.00;59.80;;;;;;4881547;29;20441;-77
2021/05/10 14:56:33;;;;;;;6.00;1.90;;;27.90;59.20;;;;;;4879405;29;20228;-77
2021/05/10 14:58:59;;;;;;;3.93;1.80;;;27.40;60.10;;;;;;4878717;29;20780;-77
2021/05/10 15:01:25;;;;;;;2.90;1.33;;;27.10;61.60;;;;;;4885786;29;20746;-78
2021/05/10 15:03:51;;;;;;;3.03;1.40;;;26.90;62.30;;;;;;4885889;29;20519;-77
2021/05/10 15:06:20;;;;;;;3.43;1.40;;;26.80;62.10;;;;;;4883231;29;20193;-78
2021/05/10 15:08:45;;;;;;;4.00;1.60;;;26.70;61.20;;;;;;4883570;29;20417;-77
2021/05/10 15:11:11;;;;;;;2.57;1.30;;;26.50;61.60;;;;;;4883432;29;20432;-77
2021/05/10 15:13:37;;;;;;;3.77;1.70;;;26.30;61.20;;;;;;4881355;29;20780;-78
2021/05/10 15:16:03;;;;;;;4.07;2.40;;;26.10;62.60;;;;;;4882484;29;20556;-78
2021/05/10 15:18:28;;;;;;;5.00;1.67;;;26.00;62.70;;;;;;4883900;29;20182;-78
2021/05/10 15:20:54;;;;;;;1.70;1.47;;;25.80;63.10;;;;;;4883145;29;20209;-78
2021/05/10 15:23:19;;;;;;;2.97;1.50;;;25.70;63.30;;;;;;4882016;29;20174;-78
2021/05/10 15:25:45;;;;;;;8.57;1.57;;;25.70;63.10;;;;;;4883221;29;20281;-78
2021/05/10 15:28:11;;;;;;;2.63;1.40;;;25.80;63.70;;;;;;4883128;29;20189;-77
2021/05/10 15:30:37;;;;;;;3.00;1.80;;;25.70;65.10;;;;;;4883289;29;20642;-77
2021/05/10 15:33:03;;;;;;;7.60;1.80;;;25.70;64.70;;;;;;4883766;29;20185;-78
2021/05/10 15:35:30;;;;;;;4.33;3.50;;;25.60;64.70;;;;;;4881389;29;20482;-77
2021/05/10 15:37:57;;;;;;;3.50;2.20;;;26.00;65.00;;;;;;4880640;29;20479;-77
2021/05/10 15:40:23;;;;;;;23.90;1.80;;;26.30;62.80;;;;;;4880434;29;20520;-76
2021/05/10 15:42:49;;;;;;;7.30;1.90;;;26.40;63.00;;;;;;4880576;29;20426;-77
2021/05/10 15:45:20;;;;;;;4.80;2.20;;;26.40;63.30;;;;;;4880429;29;20437;-77
2021/05/10 15:47:47;;;;;;;11.13;2.30;;;26.50;63.00;;;;;;4880765;29;20862;-76
2021/05/10 15:50:14;;;;;;;5.50;1.60;;;26.50;63.20;;;;;;4881678;29;20477;-77
2021/05/10 15:52:39;;;;;;;4.77;1.53;;;26.70;62.80;;;;;;4879153;29;20434;-76
2021/05/10 15:55:06;;;;;;;2.07;1.30;;;26.90;62.00;;;;;;4873214;29;20434;-76
2021/05/10 15:57:33;;;;;;;9.73;1.90;;;26.80;61.90;;;;;;4865856;29;20557;-76
2021/05/10 15:59:58;;;;;;;1.83;1.60;;;26.40;62.20;;;;;;4882290;29;20453;-76
2021/05/10 16:02:24;;;;;;;2.40;2.00;;;26.20;63.40;;;;;;4881897;29;20433;-77
2021/05/10 16:04:50;;;;;;;6.10;3.50;;;26.10;63.90;;;;;;4881068;29;20557;-76
2021/05/10 16:07:17;;;;;;;3.30;3.00;;;26.10;64.40;;;;;;4881543;29;20228;-77
2021/05/10 16:09:43;;;;;;;2.30;1.63;;;26.10;63.90;;;;;;4881476;29;20422;-77
2021/05/10 16:12:09;;;;;;;6.17;2.53;;;25.80;64.10;;;;;;4881123;29;20433;-77
2021/05/10 16:14:34;;;;;;;5.60;4.47;;;25.70;65.20;;;;;;4883424;29;20173;-77
2021/05/10 16:17:00;;;;;;;4.30;1.90;;;25.60;65.10;;;;;;4924793;23;20238;-83
2021/05/10 16:19:25;;;;;;;4.50;2.03;;;25.60;65.80;;;;;;4934791;29;20857;-83
2021/05/10 16:21:50;;;;;;;6.03;1.60;;;25.40;66.10;;;;;;4918081;29;20194;-84
2021/05/10 16:24:16;;;;;;;5.63;4.67;;;25.40;66.00;;;;;;4918324;29;20183;-84
2021/05/10 16:26:42;;;;;;;3.47;1.40;;;25.40;66.30;;;;;;4923425;29;20365;-83
2021/05/10 16:29:07;;;;;;;4.83;2.10;;;25.20;65.60;;;;;;4915109;29;20256;-84
2021/05/10 16:31:33;;;;;;;4.37;1.70;;;25.10;66.20;;;;;;4897889;29;20633;-83
2021/05/10 16:33:58;;;;;;;3.93;1.73;;;24.90;67.20;;;;;;4909323;29;20180;-81
2021/05/10 16:36:24;;;;;;;2.87;1.80;;;24.80;66.80;;;;;;4910086;29;21050;-82
2021/05/10 16:38:50;;;;;;;5.23;1.33;;;24.80;66.50;;;;;;4916014;29;20254;-82
2021/05/10 16:41:16;;;;;;;4.20;1.67;;;24.70;67.10;;;;;;4905826;29;20216;-83
2021/05/10 16:43:43;;;;;;;3.27;1.40;;;24.60;67.30;;;;;;4902061;29;20184;-83
2021/05/10 16:46:09;;;;;;;2.70;1.77;;;24.60;67.20;;;;;;4897022;29;20185;-81
2021/05/10 16:48:35;;;;;;;3.90;1.33;;;24.50;67.70;;;;;;4899218;29;20417;-81
2021/05/10 16:51:00;;;;;;;6.40;1.63;;;24.30;68.20;;;;;;4906178;29;20271;-80
2021/05/10 16:53:26;;;;;;;6.00;1.97;;;24.20;68.60;;;;;;4910970;29;20196;-80
2021/05/10 16:55:52;;;;;;;2.07;1.47;;;24.10;68.40;;;;;;4898661;29;20185;-80
2021/05/10 16:58:18;;;;;;;16.07;1.90;;;24.10;67.30;;;;;;4897748;29;20200;-80
2021/05/10 17:00:44;;;;;;;3.20;2.60;;;24.20;67.10;;;;;;4896627;29;20843;-79
2021/05/10 17:03:10;;;;;;;7.73;3.77;;;24.20;67.20;;;;;;4898078;29;20176;-79
2021/05/10 17:05:36;;;;;;;10.30;7.93;;;24.20;68.20;;;;;;4908487;29;20477;-79
2021/05/10 17:08:04;;;;;;;14.87;11.63;;;24.00;68.60;;;;;;4897351;29;20681;-79
2021/05/10 17:10:29;;;;;;;8.50;6.77;;;23.90;69.50;;;;;;4914974;29;20231;-79
2021/05/10 17:12:55;;;;;;;19.30;13.73;;;23.80;69.60;;;;;;4916745;29;20416;-79
2021/05/10 17:15:21;;;;;;;9.73;6.57;;;23.70;70.30;;;;;;4916568;29;20196;-79
2021/05/10 17:17:46;;;;;;;6.30;3.23;;;23.60;71.00;;;;;;4915819;29;20211;-79
2021/05/10 17:20:12;;;;;;;6.33;3.57;;;23.50;71.20;;;;;;4913029;29;20208;-80
2021/05/10 17:22:38;;;;;;;7.30;4.93;;;23.50;70.40;;;;;;4916772;29;20673;-79